createdAt,value
2022-08-25T00:00:44.687Z,21.10
2022-08-25T00:03:47.468Z,21.00
2022-08-25T00:06:50.837Z,20.90
2022-08-25T00:09:52.457Z,20.70
2022-08-25T00:12:54.559Z,20.60
2022-08-25T00:15:56.443Z,20.50
2022-08-25T00:19:01.414Z,20.40
2022-08-25T00:22:06.671Z,20.40
2022-08-25T00:25:09.729Z,20.40
2022-08-25T00:28:11.664Z,20.40
2022-08-25T00:31:16.314Z,20.30
2022-08-25T00:34:22.609Z,20.30
2022-08-25T00:37:24.284Z,20.30
2022-08-25T00:40:26.825Z,20.30
2022-08-25T00:43:32.628Z,20.10
2022-08-25T00:46:41.085Z,20.10
2022-08-25T00:49:47.732Z,20.00
2022-08-25T00:52:54.354Z,20.00
2022-08-25T00:55:56.119Z,20.10
2022-08-25T00:58:59.795Z,20.10
2022-08-25T01:02:02.467Z,20.10
2022-08-25T01:05:05.000Z,20.10
2022-08-25T01:08:08.328Z,20.20
2022-08-25T01:11:13.092Z,20.20
2022-08-25T01:14:17.978Z,20.20
2022-08-25T01:17:21.800Z,20.20
2022-08-25T01:20:27.962Z,20.20
2022-08-25T01:23:32.587Z,20.20
2022-08-25T01:26:35.804Z,20.10
2022-08-25T01:29:38.680Z,20.10
2022-08-25T01:32:40.400Z,20.00
2022-08-25T01:35:42.101Z,20.00
2022-08-25T01:38:43.731Z,19.90
2022-08-25T01:42:12.379Z,19.90
2022-08-25T01:45:14.967Z,20.00
2022-08-25T01:48:18.279Z,20.00
2022-08-25T01:51:23.523Z,19.90
2022-08-25T01:54:25.189Z,19.90
2022-08-25T01:57:30.080Z,19.90
2022-08-25T02:00:31.779Z,19.90
2022-08-25T02:03:38.044Z,19.80
2022-08-25T02:06:42.783Z,19.70
2022-08-25T02:09:44.629Z,19.60
2022-08-25T02:12:46.284Z,19.50
2022-08-25T02:15:51.709Z,19.40
2022-08-25T02:18:53.733Z,19.40
2022-08-25T02:21:55.689Z,19.30
2022-08-25T02:24:57.293Z,19.30
2022-08-25T02:27:59.038Z,19.30
2022-08-25T02:31:01.735Z,19.30
2022-08-25T02:34:04.647Z,19.20
2022-08-25T02:37:06.263Z,19.20
2022-08-25T02:40:08.769Z,19.30
2022-08-25T02:43:10.568Z,19.30
2022-08-25T02:46:13.030Z,19.30
2022-08-25T02:49:14.696Z,19.20
2022-08-25T02:52:17.230Z,19.30
2022-08-25T02:55:19.456Z,19.30
2022-08-25T02:58:21.768Z,19.30
2022-08-25T03:01:28.425Z,19.30
2022-08-25T03:04:31.878Z,19.30
2022-08-25T03:07:35.460Z,19.30
2022-08-25T03:10:37.231Z,19.40
2022-08-25T03:13:39.686Z,19.30
2022-08-25T03:16:42.803Z,19.30
2022-08-25T03:19:48.020Z,19.30
2022-08-25T03:22:49.953Z,19.30
2022-08-25T03:26:12.033Z,19.40
2022-08-25T03:29:13.838Z,19.40
2022-08-25T03:32:15.427Z,19.40
2022-08-25T03:35:18.114Z,19.40
2022-08-25T03:38:19.716Z,19.40
2022-08-25T03:41:29.176Z,19.40
2022-08-25T03:44:30.936Z,19.40
2022-08-25T03:47:32.523Z,19.40
2022-08-25T03:50:34.720Z,19.50
2022-08-25T03:53:36.359Z,19.40
2022-08-25T03:56:38.274Z,19.40
2022-08-25T03:59:40.335Z,19.30
2022-08-25T04:02:42.677Z,19.30
2022-08-25T04:05:44.335Z,19.30
2022-08-25T04:08:47.184Z,19.30
2022-08-25T04:11:51.920Z,19.20
2022-08-25T04:14:55.154Z,19.20
2022-08-25T04:17:58.705Z,19.20
2022-08-25T04:21:06.163Z,19.30
2022-08-25T04:24:10.254Z,19.30
2022-08-25T04:27:11.853Z,19.40
2022-08-25T04:30:14.029Z,19.40
2022-08-25T04:33:15.622Z,19.40
2022-08-25T04:36:18.822Z,19.40
2022-08-25T04:39:21.380Z,19.40
2022-08-25T04:42:23.046Z,19.40
2022-08-25T04:45:24.780Z,19.40
2022-08-25T04:48:26.639Z,19.50
2022-08-25T04:51:37.685Z,19.50
2022-08-25T04:54:39.404Z,19.60
2022-08-25T04:57:41.110Z,19.60
2022-08-25T05:00:43.896Z,19.60
2022-08-25T05:03:54.222Z,19.60
2022-08-25T05:06:56.940Z,19.70
2022-08-25T05:09:58.799Z,19.70
2022-08-25T05:13:00.618Z,19.80
2022-08-25T05:16:03.198Z,19.90
2022-08-25T05:19:05.117Z,20.00
2022-08-25T05:22:06.913Z,20.10
2022-08-25T05:25:08.764Z,20.10
2022-08-25T05:28:10.657Z,20.20
2022-08-25T05:31:14.264Z,20.20
2022-08-25T05:34:17.385Z,20.30
2022-08-25T05:37:18.977Z,20.40
2022-08-25T05:40:21.669Z,20.40
2022-08-25T05:43:23.426Z,20.50
2022-08-25T05:46:26.010Z,20.60
2022-08-25T05:49:30.684Z,20.80
2022-08-25T05:52:32.879Z,20.90
2022-08-25T05:55:34.514Z,21.20
2022-08-25T05:58:37.515Z,21.40
2022-08-25T06:01:57.657Z,21.70
2022-08-25T06:04:59.252Z,21.90
2022-08-25T06:08:00.915Z,22.10
2022-08-25T06:11:02.548Z,22.40
2022-08-25T06:14:04.679Z,22.60
2022-08-25T06:17:06.461Z,22.80
2022-08-25T06:20:11.230Z,23.00
2022-08-25T06:23:13.234Z,23.10
2022-08-25T06:26:19.084Z,23.20
2022-08-25T06:29:23.213Z,23.30
2022-08-25T06:32:24.864Z,23.40
2022-08-25T06:35:26.495Z,23.50
2022-08-25T06:38:28.324Z,23.60
2022-08-25T06:41:36.546Z,23.80
2022-08-25T06:44:38.764Z,23.90
2022-08-25T06:47:40.381Z,23.80
2022-08-25T06:50:42.950Z,23.80
2022-08-25T06:53:48.895Z,23.80
2022-08-25T06:56:51.087Z,23.90
2022-08-25T06:59:53.368Z,24.10
2022-08-25T07:02:55.291Z,24.20
2022-08-25T07:05:56.976Z,24.30
2022-08-25T07:08:58.845Z,24.40
2022-08-25T07:12:02.422Z,24.60
2022-08-25T07:15:19.562Z,24.50
2022-08-25T07:18:22.493Z,24.60
2022-08-25T07:21:27.883Z,24.60
2022-08-25T07:24:33.050Z,24.60
2022-08-25T07:27:34.849Z,24.80
2022-08-25T07:30:36.479Z,24.70
2022-08-25T07:33:59.298Z,24.80
2022-08-25T07:37:04.360Z,25.00
2022-08-25T07:40:07.971Z,25.20
2022-08-25T07:43:10.258Z,25.20
2022-08-25T07:46:11.975Z,25.20
2022-08-25T07:49:16.679Z,25.30
2022-08-25T07:52:19.754Z,25.40
2022-08-25T07:55:21.456Z,25.60
2022-08-25T07:58:23.099Z,25.60
2022-08-25T08:01:25.616Z,25.80
2022-08-25T08:04:27.371Z,25.90
2022-08-25T08:07:43.272Z,25.90
2022-08-25T08:11:03.267Z,26.20
2022-08-25T08:14:08.290Z,26.10
2022-08-25T08:17:11.156Z,26.00
2022-08-25T08:20:13.847Z,26.10
2022-08-25T08:23:18.561Z,26.20
2022-08-25T08:26:20.628Z,26.30
2022-08-25T08:29:23.113Z,26.40
2022-08-25T08:32:31.412Z,26.60
2022-08-25T08:35:42.255Z,26.90
2022-08-25T08:38:44.672Z,27.10
2022-08-25T08:42:18.346Z,27.30
2022-08-25T08:45:40.643Z,27.30
2022-08-25T08:49:05.503Z,27.20
2022-08-25T08:52:09.313Z,27.10
2022-08-25T08:55:26.711Z,27.00
2022-08-25T08:58:37.015Z,27.00
2022-08-25T09:02:00.493Z,27.10
2022-08-25T09:05:08.624Z,27.10
2022-08-25T09:08:13.387Z,27.30
2022-08-25T09:11:45.693Z,27.30
2022-08-25T09:15:02.412Z,27.40
2022-08-25T09:18:39.049Z,27.70
2022-08-25T09:22:35.603Z,27.80
2022-08-25T09:25:54.059Z,27.70
2022-08-25T09:29:25.461Z,27.80
2022-08-25T09:32:31.724Z,27.70
2022-08-25T09:35:36.973Z,27.80
2022-08-25T09:38:39.983Z,27.70
2022-08-25T09:41:51.395Z,27.60
2022-08-25T09:44:53.298Z,27.60
2022-08-25T09:47:54.906Z,27.80
2022-08-25T09:51:09.973Z,28.00
2022-08-25T09:54:15.178Z,28.10
2022-08-25T09:57:43.078Z,28.00
2022-08-25T10:00:44.828Z,28.00
2022-08-25T10:04:18.900Z,28.10
2022-08-25T10:07:39.272Z,28.10
2022-08-25T10:10:45.844Z,28.20
2022-08-25T10:13:53.342Z,28.40
2022-08-25T10:17:27.668Z,28.40
2022-08-25T10:20:35.216Z,28.50
2022-08-25T10:23:55.751Z,28.70
2022-08-25T10:27:09.451Z,28.50
2022-08-25T10:30:13.942Z,28.70
2022-08-25T10:33:40.739Z,28.80
2022-08-25T10:36:56.741Z,28.80
2022-08-25T10:40:37.261Z,28.80
2022-08-25T10:43:53.156Z,28.80
2022-08-25T10:47:22.413Z,28.70
2022-08-25T10:50:45.288Z,28.90
2022-08-25T10:54:04.153Z,29.30
2022-08-25T10:57:30.716Z,29.40
2022-08-25T11:00:47.700Z,29.80
2022-08-25T11:03:59.291Z,30.10
2022-08-25T11:07:08.264Z,29.90
2022-08-25T11:10:24.748Z,29.80
2022-08-25T11:13:38.939Z,29.80
2022-08-25T11:16:48.422Z,29.60
2022-08-25T11:19:55.320Z,29.70
2022-08-25T11:23:28.515Z,29.80
2022-08-25T11:26:37.469Z,30.20
2022-08-25T11:29:43.812Z,30.30
2022-08-25T11:32:51.932Z,30.30
2022-08-25T11:35:59.170Z,30.40
2022-08-25T11:39:22.034Z,30.20
2022-08-25T11:42:32.552Z,30.10
2022-08-25T11:46:13.269Z,30.20
2022-08-25T11:49:49.844Z,30.40
2022-08-25T11:52:55.909Z,30.80
2022-08-25T11:56:02.756Z,31.20
2022-08-25T11:59:05.293Z,31.30
2022-08-25T12:02:06.963Z,31.20
2022-08-25T12:05:34.342Z,31.20
2022-08-25T12:09:00.977Z,30.70
2022-08-25T12:12:41.156Z,30.80
2022-08-25T12:15:43.092Z,30.60
2022-08-25T12:18:46.358Z,30.40
2022-08-25T12:21:48.292Z,30.30
2022-08-25T12:25:03.233Z,30.40
2022-08-25T12:28:55.156Z,30.40
2022-08-25T12:31:57.292Z,30.60
2022-08-25T12:35:24.892Z,30.60
2022-08-25T12:38:52.441Z,30.80
2022-08-25T12:41:59.687Z,31.10
2022-08-25T12:45:20.110Z,31.40
2022-08-25T12:48:27.540Z,31.40
2022-08-25T12:51:48.547Z,31.70
2022-08-25T12:54:59.393Z,31.50
2022-08-25T12:58:04.394Z,31.30
2022-08-25T13:01:33.136Z,31.10
2022-08-25T13:05:05.686Z,31.00
2022-08-25T13:08:39.561Z,30.70
2022-08-25T13:12:16.807Z,30.60
2022-08-25T13:15:32.718Z,30.60
2022-08-25T13:18:39.874Z,30.80
2022-08-25T13:21:43.195Z,31.20
2022-08-25T13:24:50.776Z,31.90
2022-08-25T13:27:57.052Z,32.40
2022-08-25T13:31:05.226Z,32.90
2022-08-25T13:34:19.217Z,32.90
2022-08-25T13:37:32.320Z,32.80
2022-08-25T13:40:36.638Z,32.50
2022-08-25T13:43:39.777Z,32.30
2022-08-25T13:46:44.246Z,32.30
2022-08-25T13:49:47.710Z,32.20
2022-08-25T13:52:57.403Z,32.50
2022-08-25T13:56:03.031Z,32.50
2022-08-25T13:59:18.606Z,32.10
2022-08-25T14:03:17.812Z,31.90
2022-08-25T14:06:26.137Z,31.60
2022-08-25T14:09:47.484Z,31.50
2022-08-25T14:13:17.372Z,31.60
2022-08-25T14:16:25.481Z,31.70
2022-08-25T14:19:28.683Z,32.00
2022-08-25T14:22:30.701Z,32.40
2022-08-25T14:25:34.832Z,32.30
2022-08-25T14:28:38.291Z,32.20
2022-08-25T14:31:44.832Z,32.40
2022-08-25T14:34:46.849Z,32.40
2022-08-25T14:37:49.235Z,32.10
2022-08-25T14:40:51.294Z,31.80
2022-08-25T14:43:53.548Z,32.00
2022-08-25T14:46:56.936Z,32.20
2022-08-25T14:50:01.257Z,32.40
2022-08-25T14:53:04.294Z,32.70
2022-08-25T14:56:16.368Z,32.90
2022-08-25T14:59:19.867Z,33.20
2022-08-25T15:02:22.975Z,33.20
2022-08-25T15:05:32.155Z,33.00
2022-08-25T15:08:52.473Z,33.30
2022-08-25T15:11:56.119Z,33.40
2022-08-25T15:14:58.167Z,33.70
2022-08-25T15:18:01.305Z,33.90
2022-08-25T15:21:03.041Z,34.20
2022-08-25T15:24:05.642Z,34.40
2022-08-25T15:27:10.152Z,34.60
2022-08-25T15:30:13.020Z,34.80
2022-08-25T15:33:14.768Z,35.20
2022-08-25T15:36:20.625Z,35.00
2022-08-25T15:39:22.643Z,34.40
2022-08-25T15:42:25.411Z,34.00
2022-08-25T15:45:28.139Z,34.00
2022-08-25T15:48:29.764Z,33.80
2022-08-25T15:51:31.394Z,33.40
2022-08-25T15:54:33.144Z,33.40
2022-08-25T15:57:35.185Z,33.40
2022-08-25T16:00:41.350Z,33.30
2022-08-25T16:03:43.578Z,33.40
2022-08-25T16:06:45.823Z,33.20
2022-08-25T16:09:49.394Z,33.00
2022-08-25T16:12:52.804Z,33.20
2022-08-25T16:15:55.039Z,33.30
2022-08-25T16:18:57.268Z,33.50
2022-08-25T16:22:00.470Z,33.50
2022-08-25T16:25:02.472Z,33.10
2022-08-25T16:28:04.215Z,32.60
2022-08-25T16:31:08.857Z,32.30
2022-08-25T16:34:11.379Z,32.50
2022-08-25T16:37:13.452Z,33.00
2022-08-25T16:40:18.481Z,33.30
2022-08-25T16:43:20.165Z,33.30
2022-08-25T16:46:23.796Z,32.90
2022-08-25T16:49:25.702Z,33.00
2022-08-25T16:52:45.828Z,32.70
2022-08-25T16:55:48.015Z,32.00
2022-08-25T16:58:55.536Z,31.90
2022-08-25T17:01:58.709Z,31.70
2022-08-25T17:05:00.365Z,31.50
2022-08-25T17:08:21.123Z,31.60
2022-08-25T17:11:28.121Z,32.10
2022-08-25T17:14:30.888Z,32.60
2022-08-25T17:17:38.398Z,32.80
2022-08-25T17:20:45.233Z,32.90
2022-08-25T17:23:47.717Z,33.20
2022-08-25T17:26:52.995Z,33.00
2022-08-25T17:29:54.623Z,32.80
2022-08-25T17:32:57.845Z,32.70
2022-08-25T17:36:00.307Z,32.90
2022-08-25T17:39:02.147Z,32.90
2022-08-25T17:42:04.680Z,32.80
2022-08-25T17:45:06.806Z,32.40
2022-08-25T17:48:09.821Z,31.90
2022-08-25T17:51:15.926Z,31.40
2022-08-25T17:54:18.045Z,31.40
2022-08-25T17:57:19.829Z,31.30
2022-08-25T18:00:23.874Z,31.20
2022-08-25T18:03:26.311Z,31.10
2022-08-25T18:06:31.000Z,30.70
2022-08-25T18:09:32.796Z,30.40
2022-08-25T18:12:35.359Z,30.20
2022-08-25T18:15:37.922Z,30.10
2022-08-25T18:18:44.495Z,29.90
2022-08-25T18:21:46.395Z,29.60
2022-08-25T18:24:48.055Z,29.50
2022-08-25T18:27:49.704Z,29.30
2022-08-25T18:30:51.309Z,29.10
2022-08-25T18:33:53.686Z,29.00
2022-08-25T18:36:55.418Z,28.90
2022-08-25T18:40:16.159Z,28.80
2022-08-25T18:43:18.071Z,28.60
2022-08-25T18:46:22.592Z,28.40
2022-08-25T18:49:26.827Z,28.30
2022-08-25T18:52:30.509Z,28.20
2022-08-25T18:55:33.114Z,28.10
2022-08-25T18:58:34.851Z,28.00
2022-08-25T19:01:38.685Z,27.90
2022-08-25T19:04:40.723Z,27.80
2022-08-25T19:07:51.927Z,27.70
2022-08-25T19:10:57.000Z,27.60
2022-08-25T19:13:59.664Z,27.50
2022-08-25T19:17:01.945Z,27.40
2022-08-25T19:20:04.851Z,27.40
2022-08-25T19:23:13.105Z,27.20
2022-08-25T19:26:17.374Z,27.10
2022-08-25T19:29:19.930Z,27.00
2022-08-25T19:32:21.548Z,26.90
2022-08-25T19:35:30.952Z,26.70
2022-08-25T19:38:35.512Z,26.70
2022-08-25T19:41:37.647Z,26.50
2022-08-25T19:44:40.168Z,26.50
2022-08-25T19:47:43.524Z,26.30
2022-08-25T19:50:45.215Z,26.30
2022-08-25T19:53:49.108Z,26.20
2022-08-25T19:56:57.214Z,26.10
2022-08-25T19:59:58.872Z,26.00
2022-08-25T20:03:01.385Z,25.90
2022-08-25T20:06:03.293Z,25.80
2022-08-25T20:09:05.995Z,25.70
2022-08-25T20:12:09.437Z,25.70
2022-08-25T20:15:13.586Z,25.60
2022-08-25T20:18:18.178Z,25.60
2022-08-25T20:21:19.878Z,25.40
2022-08-25T20:24:39.911Z,25.30
2022-08-25T20:27:46.498Z,25.30
2022-08-25T20:30:48.260Z,25.30
2022-08-25T20:33:50.020Z,25.20
2022-08-25T20:36:53.787Z,25.10
2022-08-25T20:39:55.679Z,25.00
2022-08-25T20:43:01.838Z,24.80
2022-08-25T20:46:06.615Z,24.70
2022-08-25T20:49:08.960Z,24.70
2022-08-25T20:52:11.836Z,24.60
2022-08-25T20:55:13.689Z,24.60
2022-08-25T20:58:15.647Z,24.60
2022-08-25T21:01:23.475Z,24.50
2022-08-25T21:04:29.130Z,24.50
2022-08-25T21:07:31.274Z,24.50
2022-08-25T21:10:37.597Z,24.50
2022-08-25T21:13:39.931Z,24.50
2022-08-25T21:16:46.372Z,24.40
2022-08-25T21:22:55.589Z,24.40
2022-08-25T21:25:58.403Z,24.30
2022-08-25T21:29:01.878Z,24.30
2022-08-25T21:32:03.932Z,24.30
2022-08-25T21:35:07.814Z,24.20
2022-08-25T21:38:09.698Z,24.20
2022-08-25T21:41:16.776Z,24.20
2022-08-25T21:44:18.960Z,24.20
2022-08-25T21:47:21.694Z,24.20
2022-08-25T21:50:25.944Z,24.20
2022-08-25T21:53:29.690Z,24.20
2022-08-25T21:56:31.274Z,24.10
2022-08-25T21:59:37.160Z,24.10
2022-08-25T22:02:38.946Z,24.20
2022-08-25T22:05:40.730Z,24.20
2022-08-25T22:08:44.911Z,24.20
2022-08-25T22:11:47.388Z,24.30
2022-08-25T22:14:49.095Z,24.30
2022-08-25T22:17:50.713Z,24.40
2022-08-25T22:20:52.712Z,24.40
2022-08-25T22:23:55.942Z,24.40
2022-08-25T22:26:57.566Z,24.40
2022-08-25T22:30:00.179Z,24.40
2022-08-25T22:33:01.872Z,24.30
2022-08-25T22:36:12.314Z,24.30
2022-08-25T22:39:14.007Z,24.20
2022-08-25T22:42:18.245Z,24.10
2022-08-25T22:45:20.386Z,24.00
2022-08-25T22:48:21.990Z,23.90
2022-08-25T22:51:26.299Z,23.90
2022-08-25T22:54:28.168Z,23.80
2022-08-25T22:57:29.941Z,23.70
2022-08-25T23:00:31.555Z,23.60
2022-08-25T23:03:33.217Z,23.50
2022-08-25T23:06:35.387Z,23.40
2022-08-25T23:09:37.100Z,23.40
2022-08-25T23:12:40.179Z,23.20
2022-08-25T23:15:47.034Z,23.20
2022-08-25T23:18:48.841Z,23.10
2022-08-25T23:22:09.333Z,23.00
2022-08-25T23:25:12.199Z,22.90
2022-08-25T23:28:15.275Z,22.90
2022-08-25T23:31:17.641Z,22.80
2022-08-25T23:34:19.327Z,22.80
2022-08-25T23:37:21.074Z,22.70
2022-08-25T23:40:22.907Z,22.80
2022-08-25T23:43:25.629Z,22.70
2022-08-25T23:46:29.443Z,22.80
2022-08-25T23:49:32.212Z,22.80
2022-08-25T23:52:35.831Z,22.80
2022-08-25T23:55:37.416Z,22.70
2022-08-25T23:58:53.073Z,22.70
